sensor_id;sensor_type;location;lat;lon;timestamp;pressure;altitude;pressure_sealevel;temperature;humidity
16738;BME280;17906;47.684;10.806;2023-04-07T00:01:54;93257.44;;;0.06;76.12
16738;BME280;17906;47.684;10.806;2023-04-07T00:04:20;93247.34;;;0.01;74.96
16738;BME280;17906;47.684;10.806;2023-04-07T00:06:47;93238.06;;;0.12;74.58
16738;BME280;17906;47.684;10.806;2023-04-07T00:09:14;93254.69;;;0.14;76.68
16738;BME280;17906;47.684;10.806;2023-04-07T00:11:42;93251.09;;;0.21;76.02
16738;BME280;17906;47.684;10.806;2023-04-07T00:14:08;93248.78;;;0.18;77.36
16738;BME280;17906;47.684;10.806;2023-04-07T00:16:35;93245.59;;;0.23;76.81
16738;BME280;17906;47.684;10.806;2023-04-07T00:19:01;93253.66;;;0.29;76.01
16738;BME280;17906;47.684;10.806;2023-04-07T00:21:28;93247.69;;;0.27;77.19
16738;BME280;17906;47.684;10.806;2023-04-07T00:23:55;93246.22;;;0.25;77.73
16738;BME280;17906;47.684;10.806;2023-04-07T00:26:22;93243.00;;;0.29;77.34
16738;BME280;17906;47.684;10.806;2023-04-07T00:28:51;93238.56;;;0.37;78.85
16738;BME280;17906;47.684;10.806;2023-04-07T00:31:17;93237.66;;;0.44;76.49
16738;BME280;17906;47.684;10.806;2023-04-07T00:33:44;93226.22;;;0.50;76.94
16738;BME280;17906;47.684;10.806;2023-04-07T00:36:12;93235.50;;;0.54;73.85
16738;BME280;17906;47.684;10.806;2023-04-07T00:38:39;93227.38;;;0.63;75.18
16738;BME280;17906;47.684;10.806;2023-04-07T00:41:05;93236.28;;;0.70;75.95
16738;BME280;17906;47.684;10.806;2023-04-07T00:43:32;93231.38;;;0.73;74.92
16738;BME280;17906;47.684;10.806;2023-04-07T00:46:00;93230.66;;;0.79;75.19
16738;BME280;17906;47.684;10.806;2023-04-07T00:48:27;93229.44;;;0.82;75.06
16738;BME280;17906;47.684;10.806;2023-04-07T00:50:55;93222.13;;;0.90;74.14
16738;BME280;17906;47.684;10.806;2023-04-07T00:53:21;93215.22;;;0.96;74.55
16738;BME280;17906;47.684;10.806;2023-04-07T00:55:48;93215.84;;;1.19;69.75
16738;BME280;17906;47.684;10.806;2023-04-07T00:58:15;93215.03;;;1.19;71.51
16738;BME280;17906;47.684;10.806;2023-04-07T01:00:44;93212.53;;;1.17;71.47
16738;BME280;17906;47.684;10.806;2023-04-07T01:03:18;93206.81;;;1.21;72.98
16738;BME280;17906;47.684;10.806;2023-04-07T01:05:49;93215.31;;;1.31;70.76
16738;BME280;17906;47.684;10.806;2023-04-07T01:08:23;93200.34;;;1.36;100.00
16738;BME280;17906;47.684;10.806;2023-04-07T01:10:52;93196.47;;;1.39;71.06
16738;BME280;17906;47.684;10.806;2023-04-07T01:13:26;93197.94;;;1.41;71.06
16738;BME280;17906;47.684;10.806;2023-04-07T01:15:54;93198.78;;;1.42;72.59
16738;BME280;17906;47.684;10.806;2023-04-07T01:18:28;93186.25;;;1.42;71.75
16738;BME280;17906;47.684;10.806;2023-04-07T01:21:01;93193.66;;;1.47;72.98
16738;BME280;17906;47.684;10.806;2023-04-07T01:23:38;93189.59;;;1.51;73.03
16738;BME280;17906;47.684;10.806;2023-04-07T01:26:17;93185.50;;;1.55;71.66
16738;BME280;17906;47.684;10.806;2023-04-07T01:28:55;93187.00;;;1.64;71.23
16738;BME280;17906;47.684;10.806;2023-04-07T01:31:25;93178.16;;;1.64;69.74
16738;BME280;17906;47.684;10.806;2023-04-07T01:33:54;93177.78;;;1.67;68.85
16738;BME280;17906;47.684;10.806;2023-04-07T01:36:23;93179.19;;;1.63;69.03
16738;BME280;17906;47.684;10.806;2023-04-07T01:38:55;93174.66;;;1.63;71.13
16738;BME280;17906;47.684;10.806;2023-04-07T01:41:23;93175.03;;;1.60;71.83
16738;BME280;17906;47.684;10.806;2023-04-07T01:43:51;93175.03;;;1.60;72.76
16738;BME280;17906;47.684;10.806;2023-04-07T01:46:18;93169.28;;;1.57;75.83
16738;BME280;17906;47.684;10.806;2023-04-07T01:48:47;93161.03;;;1.52;76.35
16738;BME280;17906;47.684;10.806;2023-04-07T01:51:15;93163.31;;;1.55;73.68
16738;BME280;17906;47.684;10.806;2023-04-07T01:53:43;93169.25;;;1.50;72.70
16738;BME280;17906;47.684;10.806;2023-04-07T01:56:10;93162.28;;;1.56;73.32
16738;BME280;17906;47.684;10.806;2023-04-07T01:58:37;93159.63;;;1.56;73.48
16738;BME280;17906;47.684;10.806;2023-04-07T02:01:04;93151.19;;;1.52;73.75
16738;BME280;17906;47.684;10.806;2023-04-07T02:03:35;93152.19;;;1.51;73.24
16738;BME280;17906;47.684;10.806;2023-04-07T02:06:06;93151.84;;;1.61;73.44
16738;BME280;17906;47.684;10.806;2023-04-07T02:08:38;93159.88;;;1.67;73.44
16738;BME280;17906;47.684;10.806;2023-04-07T02:11:10;93152.28;;;1.64;73.35
16738;BME280;17906;47.684;10.806;2023-04-07T02:13:38;93138.31;;;1.69;73.82
16738;BME280;17906;47.684;10.806;2023-04-07T02:16:06;93137.28;;;1.63;74.57
16738;BME280;17906;47.684;10.806;2023-04-07T02:18:34;93144.00;;;1.59;74.08
16738;BME280;17906;47.684;10.806;2023-04-07T02:21:04;93134.81;;;1.62;76.78
16738;BME280;17906;47.684;10.806;2023-04-07T02:23:34;93140.03;;;1.48;79.67
16738;BME280;17906;47.684;10.806;2023-04-07T02:26:00;93150.34;;;1.52;78.14
16738;BME280;17906;47.684;10.806;2023-04-07T02:28:27;93143.53;;;1.49;78.21
16738;BME280;17906;47.684;10.806;2023-04-07T02:30:53;93141.50;;;1.51;79.68
16738;BME280;17906;47.684;10.806;2023-04-07T02:33:20;93144.00;;;1.59;78.20
16738;BME280;17906;47.684;10.806;2023-04-07T02:35:46;93143.78;;;1.54;80.18
16738;BME280;17906;47.684;10.806;2023-04-07T02:38:14;93140.84;;;1.42;80.26
16738;BME280;17906;47.684;10.806;2023-04-07T02:40:41;93141.59;;;1.36;81.24
16738;BME280;17906;47.684;10.806;2023-04-07T02:43:07;93139.94;;;1.29;81.46
16738;BME280;17906;47.684;10.806;2023-04-07T02:45:34;93132.53;;;1.31;82.62
16738;BME280;17906;47.684;10.806;2023-04-07T02:48:00;93123.72;;;1.30;85.16
16738;BME280;17906;47.684;10.806;2023-04-07T02:50:27;93124.00;;;1.42;83.83
16738;BME280;17906;47.684;10.806;2023-04-07T02:52:54;93117.63;;;1.43;81.69
16738;BME280;17906;47.684;10.806;2023-04-07T02:55:22;93111.59;;;1.34;82.07
16738;BME280;17906;47.684;10.806;2023-04-07T02:57:48;93106.69;;;1.38;80.15
16738;BME280;17906;47.684;10.806;2023-04-07T03:00:15;93113.06;;;1.37;81.16
16738;BME280;17906;47.684;10.806;2023-04-07T03:02:42;93106.66;;;1.31;83.42
16738;BME280;17906;47.684;10.806;2023-04-07T03:05:08;93103.59;;;1.34;83.15
16738;BME280;17906;47.684;10.806;2023-04-07T03:07:35;93105.59;;;1.26;82.11
16738;BME280;17906;47.684;10.806;2023-04-07T03:10:01;93091.47;;;1.32;83.09
16738;BME280;17906;47.684;10.806;2023-04-07T03:12:29;93092.91;;;1.34;86.43
16738;BME280;17906;47.684;10.806;2023-04-07T03:14:56;93084.31;;;1.39;87.70
16738;BME280;17906;47.684;10.806;2023-04-07T03:17:22;93082.31;;;1.47;88.30
16738;BME280;17906;47.684;10.806;2023-04-07T03:19:49;93079.84;;;1.46;88.34
16738;BME280;17906;47.684;10.806;2023-04-07T03:22:16;93075.91;;;1.42;88.10
16738;BME280;17906;47.684;10.806;2023-04-07T03:24:43;93075.66;;;1.37;88.19
16738;BME280;17906;47.684;10.806;2023-04-07T03:27:09;93077.78;;;1.13;87.84
16738;BME280;17906;47.684;10.806;2023-04-07T03:29:37;93079.34;;;1.01;90.04
16738;BME280;17906;47.684;10.806;2023-04-07T03:32:04;93071.00;;;0.83;92.50
16738;BME280;17906;47.684;10.806;2023-04-07T03:34:30;93066.38;;;0.70;93.67
16738;BME280;17906;47.684;10.806;2023-04-07T03:36:57;93065.19;;;0.51;95.04
16738;BME280;17906;47.684;10.806;2023-04-07T03:39:24;93067.69;;;0.31;100.00
16738;BME280;17906;47.684;10.806;2023-04-07T03:41:50;59087.34;;;-146.04;100.00
16738;BME280;17906;47.684;10.806;2023-04-07T03:44:17;59087.34;;;-146.04;100.00
16738;BME280;17906;47.684;10.806;2023-04-07T03:46:45;59087.34;;;-146.04;100.00
16738;BME280;17906;47.684;10.806;2023-04-07T03:49:12;59087.34;;;-146.04;100.00
16738;BME280;17906;47.684;10.806;2023-04-07T03:51:39;59087.34;;;-146.04;100.00
16738;BME280;17906;47.684;10.806;2023-04-07T03:54:05;59087.34;;;-146.04;100.00
16738;BME280;17906;47.684;10.806;2023-04-07T03:56:32;59087.34;;;-146.04;100.00
16738;BME280;17906;47.684;10.806;2023-04-07T03:58:59;59087.34;;;-146.04;100.00
16738;BME280;17906;47.684;10.806;2023-04-07T04:01:25;59087.34;;;-146.04;100.00
16738;BME280;17906;47.684;10.806;2023-04-07T04:03:53;59087.34;;;-146.04;100.00
16738;BME280;17906;47.684;10.806;2023-04-07T04:06:20;59087.34;;;-146.04;100.00
16738;BME280;17906;47.684;10.806;2023-04-07T04:08:46;59087.34;;;-146.04;100.00
16738;BME280;17906;47.684;10.806;2023-04-07T04:11:13;59087.34;;;-146.04;100.00
16738;BME280;17906;47.684;10.806;2023-04-07T04:13:40;59087.34;;;-146.04;100.00
16738;BME280;17906;47.684;10.806;2023-04-07T04:16:06;59087.34;;;-146.04;100.00
16738;BME280;17906;47.684;10.806;2023-04-07T04:18:33;59087.34;;;-146.04;100.00
16738;BME280;17906;47.684;10.806;2023-04-07T04:21:01;59087.34;;;-146.04;100.00
16738;BME280;17906;47.684;10.806;2023-04-07T04:23:27;59087.34;;;-146.04;100.00
16738;BME280;17906;47.684;10.806;2023-04-07T04:25:54;59087.34;;;-146.04;100.00
16738;BME280;17906;47.684;10.806;2023-04-07T04:28:21;59087.34;;;-146.04;100.00
16738;BME280;17906;47.684;10.806;2023-04-07T04:30:48;59087.34;;;-146.04;100.00
16738;BME280;17906;47.684;10.806;2023-04-07T04:33:14;59087.34;;;-146.04;100.00
16738;BME280;17906;47.684;10.806;2023-04-07T04:35:41;59087.34;;;-146.04;100.00
16738;BME280;17906;47.684;10.806;2023-04-07T04:38:09;59087.34;;;-146.04;100.00
16738;BME280;17906;47.684;10.806;2023-04-07T04:40:35;59087.34;;;-146.04;100.00
16738;BME280;17906;47.684;10.806;2023-04-07T04:43:02;59087.34;;;-146.04;100.00
16738;BME280;17906;47.684;10.806;2023-04-07T04:45:31;59087.34;;;-146.04;100.00
16738;BME280;17906;47.684;10.806;2023-04-07T04:47:57;59087.34;;;-146.04;100.00
16738;BME280;17906;47.684;10.806;2023-04-07T04:50:24;59087.34;;;-146.04;100.00
16738;BME280;17906;47.684;10.806;2023-04-07T04:52:51;59087.34;;;-146.04;100.00
16738;BME280;17906;47.684;10.806;2023-04-07T04:55:19;59087.34;;;-146.04;100.00
16738;BME280;17906;47.684;10.806;2023-04-07T04:57:45;59087.34;;;-146.04;100.00
16738;BME280;17906;47.684;10.806;2023-04-07T05:00:13;59087.34;;;-146.04;100.00
16738;BME280;17906;47.684;10.806;2023-04-07T05:02:39;59087.34;;;-146.04;100.00
16738;BME280;17906;47.684;10.806;2023-04-07T05:05:07;59087.34;;;-146.04;100.00
16738;BME280;17906;47.684;10.806;2023-04-07T05:07:33;59087.34;;;-146.04;100.00
16738;BME280;17906;47.684;10.806;2023-04-07T05:10:00;59087.34;;;-146.04;100.00
16738;BME280;17906;47.684;10.806;2023-04-07T05:12:28;59087.34;;;-146.04;100.00
16738;BME280;17906;47.684;10.806;2023-04-07T05:14:54;59087.34;;;-146.04;100.00
16738;BME280;17906;47.684;10.806;2023-04-07T05:17:21;59087.34;;;-146.04;100.00
16738;BME280;17906;47.684;10.806;2023-04-07T05:19:47;59087.34;;;-146.04;100.00
16738;BME280;17906;47.684;10.806;2023-04-07T05:22:14;59087.34;;;-146.04;100.00
16738;BME280;17906;47.684;10.806;2023-04-07T05:24:40;59087.34;;;-146.04;100.00
16738;BME280;17906;47.684;10.806;2023-04-07T05:27:07;59087.34;;;-146.04;100.00
16738;BME280;17906;47.684;10.806;2023-04-07T05:29:35;59087.34;;;-146.04;100.00
16738;BME280;17906;47.684;10.806;2023-04-07T05:32:03;59087.34;;;-146.04;100.00
16738;BME280;17906;47.684;10.806;2023-04-07T05:34:30;59087.34;;;-146.04;100.00
16738;BME280;17906;47.684;10.806;2023-04-07T05:36:57;59087.34;;;-146.04;100.00
16738;BME280;17906;47.684;10.806;2023-04-07T05:39:23;59087.34;;;-146.04;100.00
16738;BME280;17906;47.684;10.806;2023-04-07T05:41:50;59087.34;;;-146.04;100.00
16738;BME280;17906;47.684;10.806;2023-04-07T05:44:17;59087.34;;;-146.04;100.00
16738;BME280;17906;47.684;10.806;2023-04-07T05:46:44;59087.34;;;-146.04;100.00
16738;BME280;17906;47.684;10.806;2023-04-07T05:49:11;59087.34;;;-146.04;100.00
16738;BME280;17906;47.684;10.806;2023-04-07T05:51:38;59087.34;;;-146.04;100.00
16738;BME280;17906;47.684;10.806;2023-04-07T05:54:04;59087.34;;;-146.04;100.00
16738;BME280;17906;47.684;10.806;2023-04-07T05:56:31;59087.34;;;-146.04;100.00
16738;BME280;17906;47.684;10.806;2023-04-07T05:58:57;59087.34;;;-146.04;100.00
16738;BME280;17906;47.684;10.806;2023-04-07T06:01:26;59087.34;;;-146.04;100.00
16738;BME280;17906;47.684;10.806;2023-04-07T06:03:54;59087.34;;;-146.04;100.00
16738;BME280;17906;47.684;10.806;2023-04-07T06:06:22;59087.34;;;-146.04;100.00
16738;BME280;17906;47.684;10.806;2023-04-07T06:08:49;59087.34;;;-146.04;100.00
16738;BME280;17906;47.684;10.806;2023-04-07T06:11:16;59087.34;;;-146.04;100.00
16738;BME280;17906;47.684;10.806;2023-04-07T06:13:42;59087.34;;;-146.04;100.00
16738;BME280;17906;47.684;10.806;2023-04-07T06:16:09;59087.34;;;-146.04;100.00
16738;BME280;17906;47.684;10.806;2023-04-07T06:18:35;59087.34;;;-146.04;100.00
16738;BME280;17906;47.684;10.806;2023-04-07T06:21:04;59087.34;;;-146.04;100.00
16738;BME280;17906;47.684;10.806;2023-04-07T06:23:30;59087.34;;;-146.04;100.00
16738;BME280;17906;47.684;10.806;2023-04-07T06:25:57;59087.34;;;-146.04;100.00
16738;BME280;17906;47.684;10.806;2023-04-07T06:28:24;59087.34;;;-146.04;100.00
16738;BME280;17906;47.684;10.806;2023-04-07T06:30:50;59087.34;;;-146.04;100.00
16738;BME280;17906;47.684;10.806;2023-04-07T06:33:17;59087.34;;;-146.04;100.00
16738;BME280;17906;47.684;10.806;2023-04-07T06:35:44;59087.34;;;-146.04;100.00
16738;BME280;17906;47.684;10.806;2023-04-07T06:38:12;59087.34;;;-146.04;100.00
16738;BME280;17906;47.684;10.806;2023-04-07T06:40:38;59087.34;;;-146.04;100.00
16738;BME280;17906;47.684;10.806;2023-04-07T06:43:05;59087.34;;;-146.04;100.00
16738;BME280;17906;47.684;10.806;2023-04-07T06:45:32;59087.34;;;-146.04;100.00
16738;BME280;17906;47.684;10.806;2023-04-07T06:47:59;59087.34;;;-146.04;100.00
16738;BME280;17906;47.684;10.806;2023-04-07T06:50:26;59087.34;;;-146.04;100.00
16738;BME280;17906;47.684;10.806;2023-04-07T06:52:52;59087.34;;;-146.04;100.00
16738;BME280;17906;47.684;10.806;2023-04-07T06:55:20;59087.34;;;-146.04;100.00
16738;BME280;17906;47.684;10.806;2023-04-07T06:57:47;93000.75;;;3.05;78.72
16738;BME280;17906;47.684;10.806;2023-04-07T07:00:15;93000.13;;;3.03;77.83
16738;BME280;17906;47.684;10.806;2023-04-07T07:02:42;93004.03;;;3.07;76.63
16738;BME280;17906;47.684;10.806;2023-04-07T07:05:08;59087.34;;;-146.04;100.00
16738;BME280;17906;47.684;10.806;2023-04-07T07:07:35;59087.34;;;-146.04;100.00
16738;BME280;17906;47.684;10.806;2023-04-07T07:10:02;59087.34;;;-146.04;100.00
16738;BME280;17906;47.684;10.806;2023-04-07T07:12:30;59087.34;;;-146.04;100.00
16738;BME280;17906;47.684;10.806;2023-04-07T07:14:57;59087.34;;;-146.04;100.00
16738;BME280;17906;47.684;10.806;2023-04-07T07:17:24;59087.34;;;-146.04;100.00
16738;BME280;17906;47.684;10.806;2023-04-07T07:19:50;59087.34;;;-146.04;100.00
16738;BME280;17906;47.684;10.806;2023-04-07T07:22:17;59087.34;;;-146.04;100.00
16738;BME280;17906;47.684;10.806;2023-04-07T07:24:44;59087.34;;;-146.04;100.00
16738;BME280;17906;47.684;10.806;2023-04-07T07:27:10;92982.66;;;6.08;65.64
16738;BME280;17906;47.684;10.806;2023-04-07T07:29:38;92983.34;;;6.33;63.87
16738;BME280;17906;47.684;10.806;2023-04-07T07:32:05;92979.50;;;6.41;62.95
16738;BME280;17906;47.684;10.806;2023-04-07T07:34:31;92980.31;;;6.83;61.90
16738;BME280;17906;47.684;10.806;2023-04-07T07:36:58;92969.78;;;6.93;61.68
16738;BME280;17906;47.684;10.806;2023-04-07T07:39:25;92968.84;;;7.11;60.63
16738;BME280;17906;47.684;10.806;2023-04-07T07:41:52;92972.47;;;7.52;59.91
16738;BME280;17906;47.684;10.806;2023-04-07T07:44:19;92965.59;;;7.84;59.23
16738;BME280;17906;47.684;10.806;2023-04-07T07:46:49;92970.59;;;8.16;54.83
16738;BME280;17906;47.684;10.806;2023-04-07T07:49:16;59087.34;;;-146.04;100.00
16738;BME280;17906;47.684;10.806;2023-04-07T07:51:42;92970.59;;;8.16;54.83
16738;BME280;17906;47.684;10.806;2023-04-07T07:54:10;62220.34;;;9.01;100.00
16738;BME280;17906;47.684;10.806;2023-04-07T07:56:37;59087.34;;;-146.04;100.00
16738;BME280;17906;47.684;10.806;2023-04-07T07:59:03;59087.34;;;-146.04;100.00
16738;BME280;17906;47.684;10.806;2023-04-07T08:01:31;59087.34;;;-146.04;100.00
16738;BME280;17906;47.684;10.806;2023-04-07T08:04:00;59087.34;;;-146.04;100.00
16738;BME280;17906;47.684;10.806;2023-04-07T08:06:27;59087.34;;;-146.04;100.00
16738;BME280;17906;47.684;10.806;2023-04-07T08:08:55;92962.41;;;9.01;52.33
16738;BME280;17906;47.684;10.806;2023-04-07T08:11:22;92943.72;;;9.00;51.71
16738;BME280;17906;47.684;10.806;2023-04-07T08:13:49;92945.28;;;8.96;52.19
16738;BME280;17906;47.684;10.806;2023-04-07T08:16:16;59087.34;;;-146.04;100.00
16738;BME280;17906;47.684;10.806;2023-04-07T08:18:43;59087.34;;;-146.04;100.00
16738;BME280;17906;47.684;10.806;2023-04-07T08:21:11;92945.63;;;9.94;48.66
16738;BME280;17906;47.684;10.806;2023-04-07T08:23:38;92946.66;;;9.87;49.17
16738;BME280;17906;47.684;10.806;2023-04-07T08:26:05;92951.19;;;10.04;48.02
16738;BME280;17906;47.684;10.806;2023-04-07T08:28:31;92937.34;;;10.27;46.64
16738;BME280;17906;47.684;10.806;2023-04-07T08:30:58;92934.47;;;10.34;46.35
16738;BME280;17906;47.684;10.806;2023-04-07T08:33:25;92938.06;;;10.66;45.63
16738;BME280;17906;47.684;10.806;2023-04-07T08:35:52;92939.00;;;10.82;45.09
16738;BME280;17906;47.684;10.806;2023-04-07T08:38:20;92939.16;;;11.67;42.53
16738;BME280;17906;47.684;10.806;2023-04-07T08:40:47;92934.63;;;12.40;41.16
16738;BME280;17906;47.684;10.806;2023-04-07T08:43:16;92927.06;;;12.62;40.10
16738;BME280;17906;47.684;10.806;2023-04-07T08:45:45;92914.63;;;13.53;40.31
16738;BME280;17906;47.684;10.806;2023-04-07T08:48:15;92919.00;;;13.59;38.09
16738;BME280;17906;47.684;10.806;2023-04-07T08:50:44;92918.66;;;13.76;38.43
16738;BME280;17906;47.684;10.806;2023-04-07T08:53:12;92919.19;;;13.98;35.76
16738;BME280;17906;47.684;10.806;2023-04-07T08:55:41;92922.97;;;13.97;36.26
16738;BME280;17906;47.684;10.806;2023-04-07T08:58:08;92922.25;;;13.66;37.43
16738;BME280;17906;47.684;10.806;2023-04-07T09:00:38;92925.50;;;13.63;37.07
16738;BME280;17906;47.684;10.806;2023-04-07T09:03:07;92911.75;;;14.09;35.62
16738;BME280;17906;47.684;10.806;2023-04-07T09:05:34;92918.47;;;14.47;34.97
16738;BME280;17906;47.684;10.806;2023-04-07T09:08:01;92916.75;;;13.91;34.95
16738;BME280;17906;47.684;10.806;2023-04-07T09:10:28;92919.53;;;13.15;37.26
16738;BME280;17906;47.684;10.806;2023-04-07T09:12:57;92920.91;;;13.02;38.46
16738;BME280;17906;47.684;10.806;2023-04-07T09:15:23;92920.63;;;13.60;37.88
16738;BME280;17906;47.684;10.806;2023-04-07T09:17:50;92903.41;;;13.80;37.04
16738;BME280;17906;47.684;10.806;2023-04-07T09:20:17;92908.91;;;13.59;38.36
16738;BME280;17906;47.684;10.806;2023-04-07T09:22:44;92907.53;;;13.62;37.39
16738;BME280;17906;47.684;10.806;2023-04-07T09:25:13;92904.69;;;14.08;38.29
16738;BME280;17906;47.684;10.806;2023-04-07T09:27:40;92907.69;;;14.76;36.33
16738;BME280;17906;47.684;10.806;2023-04-07T09:30:13;92902.56;;;15.08;34.88
16738;BME280;17906;47.684;10.806;2023-04-07T09:32:40;92900.78;;;14.34;34.42
16738;BME280;17906;47.684;10.806;2023-04-07T09:35:07;92900.25;;;14.32;34.39
16738;BME280;17906;47.684;10.806;2023-04-07T09:37:34;92903.09;;;14.02;37.06
16738;BME280;17906;47.684;10.806;2023-04-07T09:40:02;92902.56;;;13.94;35.13
16738;BME280;17906;47.684;10.806;2023-04-07T09:42:29;92892.53;;;13.80;38.38
16738;BME280;17906;47.684;10.806;2023-04-07T09:44:57;92893.25;;;14.06;37.88
16738;BME280;17906;47.684;10.806;2023-04-07T09:47:30;92898.78;;;13.80;37.91
16738;BME280;17906;47.684;10.806;2023-04-07T09:49:56;92887.41;;;13.02;38.88
16738;BME280;17906;47.684;10.806;2023-04-07T09:52:46;92894.97;;;12.49;40.24
16738;BME280;17906;47.684;10.806;2023-04-07T09:55:12;92899.84;;;11.79;40.05
16738;BME280;17906;47.684;10.806;2023-04-07T09:57:40;92905.00;;;11.81;40.39
16738;BME280;17906;47.684;10.806;2023-04-07T10:00:08;92905.94;;;11.49;40.30
16738;BME280;17906;47.684;10.806;2023-04-07T10:02:37;92903.50;;;11.16;40.74
16738;BME280;17906;47.684;10.806;2023-04-07T10:05:05;92896.41;;;10.51;42.18
16738;BME280;17906;47.684;10.806;2023-04-07T10:07:32;92902.09;;;10.49;41.93
16738;BME280;17906;47.684;10.806;2023-04-07T10:09:58;92901.38;;;10.59;42.24
16738;BME280;17906;47.684;10.806;2023-04-07T10:12:25;92896.69;;;10.22;42.22
16738;BME280;17906;47.684;10.806;2023-04-07T10:14:53;92899.44;;;10.54;41.63
16738;BME280;17906;47.684;10.806;2023-04-07T10:17:21;92894.66;;;10.93;40.36
16738;BME280;17906;47.684;10.806;2023-04-07T10:19:50;92899.22;;;11.20;39.35
16738;BME280;17906;47.684;10.806;2023-04-07T10:22:17;92895.69;;;11.61;40.75
16738;BME280;17906;47.684;10.806;2023-04-07T10:24:50;92894.88;;;11.61;37.73
16738;BME280;17906;47.684;10.806;2023-04-07T10:27:21;92899.97;;;11.52;38.67
16738;BME280;17906;47.684;10.806;2023-04-07T10:29:50;92896.31;;;11.37;38.03
16738;BME280;17906;47.684;10.806;2023-04-07T10:32:17;92900.78;;;11.11;37.81
16738;BME280;17906;47.684;10.806;2023-04-07T10:34:56;92903.47;;;11.06;39.58
16738;BME280;17906;47.684;10.806;2023-04-07T10:37:24;92897.56;;;10.55;42.04
16738;BME280;17906;47.684;10.806;2023-04-07T10:42:52;92905.50;;;10.12;41.71
16738;BME280;17906;47.684;10.806;2023-04-07T10:45:51;92904.97;;;9.88;43.65
16738;BME280;17906;47.684;10.806;2023-04-07T10:48:19;92916.78;;;9.60;43.81
16738;BME280;17906;47.684;10.806;2023-04-07T10:51:16;92912.19;;;9.61;43.19
16738;BME280;17906;47.684;10.806;2023-04-07T10:54:15;92914.06;;;9.60;45.19
16738;BME280;17906;47.684;10.806;2023-04-07T10:57:08;92913.03;;;9.28;45.04
16738;BME280;17906;47.684;10.806;2023-04-07T10:59:37;92914.56;;;9.41;45.24
16738;BME280;17906;47.684;10.806;2023-04-07T11:02:31;92914.06;;;9.22;45.72
16738;BME280;17906;47.684;10.806;2023-04-07T11:04:59;92911.97;;;9.46;45.60
16738;BME280;17906;47.684;10.806;2023-04-07T11:07:45;92912.53;;;9.65;46.82
16738;BME280;17906;47.684;10.806;2023-04-07T11:10:13;92900.97;;;9.96;45.87
16738;BME280;17906;47.684;10.806;2023-04-07T11:12:41;92905.59;;;10.44;44.77
16738;BME280;17906;47.684;10.806;2023-04-07T11:15:18;92911.41;;;10.58;47.32
16738;BME280;17906;47.684;10.806;2023-04-07T11:17:46;92907.94;;;10.90;44.34
16738;BME280;17906;47.684;10.806;2023-04-07T11:20:12;92910.75;;;10.73;44.59
16738;BME280;17906;47.684;10.806;2023-04-07T11:22:39;92903.94;;;10.97;43.65
16738;BME280;17906;47.684;10.806;2023-04-07T11:25:20;92909.25;;;11.19;43.91
16738;BME280;17906;47.684;10.806;2023-04-07T11:27:47;92918.16;;;11.15;44.00
16738;BME280;17906;47.684;10.806;2023-04-07T11:30:15;92910.09;;;11.25;43.46
16738;BME280;17906;47.684;10.806;2023-04-07T11:32:47;92909.31;;;11.29;42.22
16738;BME280;17906;47.684;10.806;2023-04-07T11:35:14;92904.94;;;11.66;43.58
16738;BME280;17906;47.684;10.806;2023-04-07T11:37:41;92901.41;;;11.65;43.51
16738;BME280;17906;47.684;10.806;2023-04-07T11:40:09;92901.41;;;11.65;43.51
16738;BME280;17906;47.684;10.806;2023-04-07T11:42:38;92908.53;;;10.97;44.84
16738;BME280;17906;47.684;10.806;2023-04-07T11:45:06;92912.50;;;10.30;46.34
16738;BME280;17906;47.684;10.806;2023-04-07T11:47:41;92924.53;;;9.96;45.63
16738;BME280;17906;47.684;10.806;2023-04-07T11:50:08;92918.38;;;10.00;45.90
16738;BME280;17906;47.684;10.806;2023-04-07T11:52:41;92917.69;;;9.88;46.45
16738;BME280;17906;47.684;10.806;2023-04-07T11:55:16;92919.56;;;9.49;47.95
16738;BME280;17906;47.684;10.806;2023-04-07T11:57:44;92921.16;;;9.45;47.66
16738;BME280;17906;47.684;10.806;2023-04-07T12:00:11;92912.31;;;9.32;48.29
16738;BME280;17906;47.684;10.806;2023-04-07T12:02:39;92917.06;;;9.42;48.49
16738;BME280;17906;47.684;10.806;2023-04-07T12:05:06;92927.53;;;9.39;47.73
16738;BME280;17906;47.684;10.806;2023-04-07T12:07:35;92920.69;;;9.14;47.21
16738;BME280;17906;47.684;10.806;2023-04-07T12:10:17;92928.81;;;9.14;47.26
16738;BME280;17906;47.684;10.806;2023-04-07T12:12:46;92919.28;;;9.28;47.27
16738;BME280;17906;47.684;10.806;2023-04-07T12:15:13;92924.78;;;9.17;47.72
16738;BME280;17906;47.684;10.806;2023-04-07T12:17:43;92926.84;;;9.10;48.56
16738;BME280;17906;47.684;10.806;2023-04-07T12:20:11;92942.16;;;9.21;48.86
16738;BME280;17906;47.684;10.806;2023-04-07T12:22:37;92929.31;;;9.11;47.87
16738;BME280;17906;47.684;10.806;2023-04-07T12:25:05;92935.28;;;9.13;47.80
16738;BME280;17906;47.684;10.806;2023-04-07T12:27:31;92936.91;;;9.14;47.81
16738;BME280;17906;47.684;10.806;2023-04-07T12:29:59;92931.16;;;9.27;46.65
16738;BME280;17906;47.684;10.806;2023-04-07T12:32:26;92937.06;;;9.80;45.27
16738;BME280;17906;47.684;10.806;2023-04-07T12:34:54;92933.66;;;10.11;45.87
16738;BME280;17906;47.684;10.806;2023-04-07T12:37:20;92925.34;;;10.40;41.82
16738;BME280;17906;47.684;10.806;2023-04-07T12:39:47;92925.22;;;10.57;41.74
16738;BME280;17906;47.684;10.806;2023-04-07T12:42:14;92919.44;;;10.75;44.99
16738;BME280;17906;47.684;10.806;2023-04-07T12:44:40;92922.16;;;10.75;42.84
16738;BME280;17906;47.684;10.806;2023-04-07T12:47:08;92912.78;;;10.34;41.54
16738;BME280;17906;47.684;10.806;2023-04-07T12:49:36;92921.09;;;9.78;43.95
16738;BME280;17906;47.684;10.806;2023-04-07T12:52:03;92928.50;;;9.66;43.34
16738;BME280;17906;47.684;10.806;2023-04-07T12:54:30;92926.41;;;9.35;43.60